Lake George, MN (56458)

7:55 AM CDT on July 24, 2016 (GMT -0500)
kabakona lake | | Change Station

Elev 1332 ft 47.17 °N, 94.79 °W | Updated 2 minutes ago

Scattered Clouds
Scattered Clouds
67.5 °F
Feels Like 67.5 °F
N
3.2
Wind Variable Wind from West

Today
High -- | Low -- °F
--% Chance of Precip.
Yesterday
High -- | Low -- °F
Precip. -- in
Pressure 29.83 in
Visibility 10.0 miles
Clouds Scattered Clouds 1100 ft
Dew Point 62 °F
Humidity 83%
Rainfall 0.00 in
Snow Depth Not available.
5:49 AM 9:02 PM
Waning Gibbous, 76% visible
METAR KPKD 241253Z AUTO 30012KT 10SM SCT011 19/16 A2984 RMK AO2 SLP100 T01890161 TSNO
Pressure 29.83 in
Visibility 10.0 miles
Clouds Scattered Clouds 1100 ft
Dew Point 62 °F
Humidity 83%
Rainfall 0.00 in
Snow Depth Not available.
5:49 AM 9:02 PM
Waning Gibbous, 76% visible
METAR KPKD 241253Z AUTO 30012KT 10SM SCT011 19/16 A2984 RMK AO2 SLP100 T01890161 TSNO

10-Day Weather Forecast

Almanac

Astronomy

Jul. 24, 2016 Rise Set
Actual Time
Civil Twilight
Nautical Twilight
Astronomical Twilight
Moon
Length of Visible Light
Length of Day
Tomorrow will be .
, % of the Moon is Illuminated

Today's Extremes

State Highs State Lows

Community

WunderPhotos

Upload Photos

1,927,054 photos uploaded!

WunderBlog® & News

Nearby

Air Quality

  Air Quality AQ Index Pollutant
Not available.

Snow Depth

Station Depth Elevation

Earthquake Activity

City Distance Mag. Time & Date
Minimum magnitude displayed is 2.5.

Coastal Water Temperatures

Place Temperature

Stations

Nearby Weather Stations

Station Location Temp. Windchill Dew Point Humidity Wind Precip. Elev Updated Type
                   

Watches & Warnings

There are currently no watches in effect.